Time;durP1;ratioP1;P1;durP2;ratioP2;P2;SDS_P1;SDS_P2;PMS_P1;PMS_P2;Temp;Humidity;BMP_temperature;BMP_pressure;BME280_temperature;BME280_humidity;BME280_pressure;Samples;Min_cycle;Max_cycle;Signal;HPM_P1;HPM_P2
2022/07/25 00:02:25;;;;;;;2.65;2.00;;;16.50;99.90;;;;;;5036539;28;20207;-91
2022/07/25 00:04:51;;;;;;;3.28;1.63;;;16.50;99.90;;;;;;5040223;28;20262;-91
2022/07/25 00:07:16;;;;;;;2.28;1.70;;;16.60;99.90;;;;;;5058059;28;20198;-91
2022/07/25 00:09:42;;;;;;;2.47;2.00;;;16.60;99.90;;;;;;5040577;28;20719;-91
2022/07/25 00:12:07;;;;;;;2.95;1.98;;;16.60;99.90;;;;;;5040397;28;20237;-91
2022/07/25 00:14:33;;;;;;;2.67;2.00;;;16.70;99.90;;;;;;5040601;28;20184;-92
2022/07/25 00:16:59;;;;;;;2.17;1.98;;;16.70;99.90;;;;;;5039815;28;20616;-93
2022/07/25 00:19:24;;;;;;;2.72;2.00;;;16.80;99.90;;;;;;5056590;28;20180;-93
2022/07/25 00:21:51;;;;;;;2.50;1.90;;;16.80;99.90;;;;;;5023748;28;20238;-92
2022/07/25 00:24:16;;;;;;;3.15;2.25;;;16.70;99.90;;;;;;5057421;28;20203;-93
2022/07/25 00:26:42;;;;;;;2.05;1.85;;;16.70;99.90;;;;;;5057450;28;20204;-93
2022/07/25 00:29:08;;;;;;;2.38;2.15;;;16.70;99.90;;;;;;5039229;28;20180;-93
2022/07/25 00:31:33;;;;;;;2.40;2.10;;;16.50;99.90;;;;;;5039322;28;20231;-92
2022/07/25 00:33:59;;;;;;;2.83;2.08;;;16.50;99.90;;;;;;5057210;28;20704;-92
2022/07/25 00:36:25;;;;;;;2.08;1.73;;;16.60;99.90;;;;;;5057384;28;20218;-92
2022/07/25 00:38:50;;;;;;;2.50;2.00;;;16.50;99.90;;;;;;5039644;28;20203;-93
2022/07/25 00:41:16;;;;;;;2.50;1.67;;;16.50;99.90;;;;;;5031217;28;20194;-91
2022/07/25 00:43:43;;;;;;;2.70;2.08;;;16.50;99.90;;;;;;5076924;28;20198;-92
2022/07/25 00:46:12;;;;;;;1.88;1.70;;;16.40;99.90;;;;;;5042900;28;20204;-91
2022/07/25 00:48:38;;;;;;;3.78;2.35;;;16.50;99.90;;;;;;5059886;28;20175;-92
2022/07/25 00:51:05;;;;;;;3.55;2.03;;;16.40;99.90;;;;;;5068431;28;20172;-87
2022/07/25 00:53:31;;;;;;;2.13;1.60;;;16.40;99.90;;;;;;5072269;28;20176;-91
2022/07/25 00:55:57;;;;;;;2.47;1.83;;;16.40;99.90;;;;;;5047858;28;20212;-91
2022/07/25 00:58:22;;;;;;;3.33;2.13;;;16.40;99.90;;;;;;5040040;28;20186;-91
2022/07/25 01:00:48;;;;;;;2.58;1.88;;;16.40;99.90;;;;;;5057495;28;20171;-93
2022/07/25 01:03:14;;;;;;;1.92;1.73;;;16.30;99.90;;;;;;5041299;28;20249;-92
2022/07/25 01:05:40;;;;;;;4.43;2.50;;;16.30;99.90;;;;;;5041281;28;20229;-92
2022/07/25 01:08:06;;;;;;;2.33;1.98;;;16.30;99.90;;;;;;5040491;28;20192;-90
2022/07/25 01:10:32;;;;;;;2.13;1.58;;;16.30;99.90;;;;;;5057806;28;20176;-92
2022/07/25 01:12:58;;;;;;;2.47;1.85;;;16.30;99.90;;;;;;5039131;28;20706;-92
2022/07/25 01:15:24;;;;;;;2.42;1.95;;;16.30;99.90;;;;;;5056118;28;20286;-93
2022/07/25 01:17:50;;;;;;;7.30;2.05;;;16.20;99.90;;;;;;5040078;28;20188;-92
2022/07/25 01:20:21;;;;;;;3.22;2.28;;;16.20;99.90;;;;;;5057035;28;20172;-92
2022/07/25 01:22:47;;;;;;;3.08;1.88;;;16.20;99.90;;;;;;5056519;28;20526;-92
2022/07/25 01:25:14;;;;;;;2.20;1.58;;;16.20;99.90;;;;;;5021511;28;20770;-92
2022/07/25 01:27:41;;;;;;;2.00;1.85;;;16.10;99.90;;;;;;5055662;28;20191;-92
2022/07/25 01:30:08;;;;;;;3.22;2.17;;;16.10;99.90;;;;;;5038029;28;20180;-92
2022/07/25 01:32:34;;;;;;;3.47;2.33;;;16.10;99.90;;;;;;5056232;28;20226;-92
2022/07/25 01:35:01;;;;;;;2.92;2.17;;;16.10;99.90;;;;;;5038538;28;20263;-93
2022/07/25 01:37:26;;;;;;;2.25;2.00;;;16.10;99.90;;;;;;5038101;28;20259;-93
2022/07/25 01:39:52;;;;;;;2.55;2.03;;;16.00;99.90;;;;;;5038537;28;20622;-93
2022/07/25 01:42:19;;;;;;;2.85;1.95;;;16.10;99.90;;;;;;5038351;28;20617;-93
2022/07/25 01:44:44;;;;;;;3.35;2.47;;;15.90;99.90;;;;;;5055595;28;20203;-91
2022/07/25 01:47:10;;;;;;;2.40;2.20;;;15.90;99.90;;;;;;5021280;28;20184;-89
2022/07/25 01:49:36;;;;;;;2.47;1.95;;;15.90;99.90;;;;;;5037796;28;20187;-91
2022/07/25 01:52:01;;;;;;;2.40;2.20;;;15.90;99.90;;;;;;5038216;28;20180;-92
2022/07/25 01:54:27;;;;;;;3.55;1.98;;;15.90;99.90;;;;;;5038744;28;20237;-91
2022/07/25 01:56:53;;;;;;;2.65;2.20;;;15.90;99.90;;;;;;5039856;28;20564;-89
2022/07/25 01:59:18;;;;;;;2.20;1.65;;;15.80;99.90;;;;;;5005956;28;20180;-91
2022/07/25 02:01:44;;;;;;;3.80;2.67;;;15.80;99.90;;;;;;5057015;28;20180;-91
2022/07/25 02:04:11;;;;;;;5.47;2.25;;;15.80;99.90;;;;;;5056386;28;20659;-92
2022/07/25 02:06:36;;;;;;;1.92;1.65;;;15.60;99.90;;;;;;5022399;28;20381;-91
2022/07/25 02:09:03;;;;;;;3.10;2.72;;;15.70;99.90;;;;;;5055256;28;20184;-91
2022/07/25 02:11:29;;;;;;;2.47;1.92;;;15.70;99.90;;;;;;5056144;28;20617;-91
2022/07/25 02:13:54;;;;;;;2.63;2.10;;;15.70;99.90;;;;;;5038356;28;20203;-91
2022/07/25 02:16:20;;;;;;;4.15;2.30;;;15.70;99.90;;;;;;5038151;28;20245;-92
2022/07/25 02:18:45;;;;;;;4.82;2.25;;;15.60;99.90;;;;;;5022337;28;20621;-92
2022/07/25 02:21:11;;;;;;;3.15;1.95;;;15.60;99.90;;;;;;5056076;28;20570;-92
2022/07/25 02:23:37;;;;;;;2.30;1.88;;;15.60;99.90;;;;;;5056089;28;20180;-92
2022/07/25 02:26:03;;;;;;;2.67;1.95;;;15.60;99.90;;;;;;5056360;28;20180;-91
2022/07/25 02:28:29;;;;;;;2.53;1.95;;;15.50;99.90;;;;;;5037921;28;20195;-92
2022/07/25 02:30:55;;;;;;;2.30;2.10;;;15.50;99.90;;;;;;5036763;28;20235;-92
2022/07/25 02:33:20;;;;;;;3.03;2.35;;;15.50;99.90;;;;;;5036919;28;20286;-91
2022/07/25 02:35:46;;;;;;;3.45;2.15;;;15.50;99.90;;;;;;5054960;28;20213;-91
2022/07/25 02:38:18;;;;;;;3.00;2.20;;;15.40;99.90;;;;;;5054558;28;20187;-92
2022/07/25 02:40:45;;;;;;;4.05;2.25;;;15.40;99.90;;;;;;5022198;28;20160;-91
2022/07/25 02:43:10;;;;;;;4.47;2.50;;;15.40;99.90;;;;;;5054733;28;20200;-90
2022/07/25 02:45:36;;;;;;;2.80;2.47;;;15.30;99.90;;;;;;5036552;28;20242;-91
2022/07/25 02:48:01;;;;;;;2.58;2.28;;;15.30;99.90;;;;;;5054646;28;20238;-90
2022/07/25 02:50:27;;;;;;;4.82;2.38;;;15.30;99.90;;;;;;5037051;28;20184;-91
2022/07/25 02:52:53;;;;;;;2.38;2.05;;;15.20;99.90;;;;;;5038053;28;20180;-92
2022/07/25 02:55:18;;;;;;;3.95;2.50;;;15.10;99.90;;;;;;5019883;28;20661;-91
2022/07/25 02:57:44;;;;;;;4.47;3.17;;;15.10;99.90;;;;;;5020200;28;20188;-91
2022/07/25 03:00:10;;;;;;;4.45;2.53;;;15.10;99.90;;;;;;5054146;28;20179;-91
2022/07/25 03:02:36;;;;;;;5.10;3.15;;;15.10;99.90;;;;;;5037119;28;20179;-92
2022/07/25 03:05:07;;;;;;;3.38;2.80;;;15.10;99.90;;;;;;5053938;28;20245;-92
2022/07/25 03:07:33;;;;;;;6.28;2.65;;;15.00;99.90;;;;;;5053736;28;20637;-91
2022/07/25 03:09:59;;;;;;;7.15;3.22;;;15.00;99.90;;;;;;5036131;28;20175;-92
2022/07/25 03:12:24;;;;;;;4.32;2.55;;;14.90;99.90;;;;;;5036186;28;20637;-92
2022/07/25 03:14:50;;;;;;;5.32;2.95;;;14.90;99.90;;;;;;5036958;28;20172;-92
2022/07/25 03:17:15;;;;;;;4.60;2.92;;;14.90;99.90;;;;;;5036414;28;20667;-91
2022/07/25 03:19:41;;;;;;;6.72;3.00;;;14.80;99.90;;;;;;5053949;28;20229;-92
2022/07/25 03:22:07;;;;;;;4.47;2.63;;;14.90;99.90;;;;;;5019877;28;20207;-94
2022/07/25 03:24:33;;;;;;;4.43;2.92;;;14.90;99.90;;;;;;5037243;28;20215;-93
2022/07/25 03:26:58;;;;;;;8.60;2.75;;;14.90;99.90;;;;;;5022125;28;20210;-94
2022/07/25 03:29:24;;;;;;;4.82;3.10;;;14.80;99.90;;;;;;5054529;28;20263;-90
2022/07/25 03:31:49;;;;;;;4.50;2.80;;;14.90;99.90;;;;;;5054772;28;20307;-92
2022/07/25 03:34:15;;;;;;;3.90;2.97;;;14.90;99.90;;;;;;5054237;28;20171;-94
2022/07/25 03:36:40;;;;;;;4.97;2.83;;;15.00;99.90;;;;;;5036449;28;20211;-92
2022/07/25 03:39:06;;;;;;;3.25;2.72;;;15.00;99.90;;;;;;5022134;28;20180;-89
2022/07/25 03:41:32;;;;;;;3.13;2.80;;;15.00;99.90;;;;;;5039497;28;20183;-88
2022/07/25 03:43:57;;;;;;;4.50;3.28;;;15.10;99.90;;;;;;5039739;28;20176;-89
2022/07/25 03:46:23;;;;;;;4.00;2.45;;;15.20;99.90;;;;;;5057238;28;20179;-89
2022/07/25 03:48:49;;;;;;;5.10;3.45;;;15.20;99.90;;;;;;5022927;28;20708;-90
2022/07/25 03:51:14;;;;;;;3.38;2.58;;;15.30;99.90;;;;;;5057336;28;20267;-90
2022/07/25 03:56:24;;;;;;;4.25;2.63;;;15.40;99.90;;;;;;5059539;28;20268;-89
2022/07/25 03:58:50;;;;;;;5.00;3.05;;;15.40;99.90;;;;;;5042181;28;20198;-89
2022/07/25 04:01:16;;;;;;;5.15;2.95;;;15.50;99.90;;;;;;5058715;28;20215;-89
2022/07/25 04:03:41;;;;;;;3.75;3.13;;;15.50;99.90;;;;;;5064423;28;20167;-89
2022/07/25 04:06:07;;;;;;;6.20;3.40;;;15.50;99.90;;;;;;5081729;28;20239;-88
2022/07/25 04:08:32;;;;;;;5.03;2.92;;;15.50;99.90;;;;;;5041231;28;20188;-89
2022/07/25 04:10:58;;;;;;;4.18;3.03;;;15.50;99.90;;;;;;5059876;28;20655;-89
2022/07/25 04:13:24;;;;;;;4.47;3.10;;;15.60;99.90;;;;;;5040885;28;20183;-89
2022/07/25 04:15:50;;;;;;;4.65;3.13;;;15.70;99.90;;;;;;5042081;28;20204;-89
2022/07/25 04:18:16;;;;;;;5.32;3.30;;;15.80;99.90;;;;;;5045908;28;20206;-89
2022/07/25 04:20:41;;;;;;;3.10;2.28;;;15.80;99.90;;;;;;5046772;28;20191;-89
2022/07/25 04:23:07;;;;;;;4.80;3.05;;;16.00;99.90;;;;;;5031043;28;20184;-89
2022/07/25 04:25:32;;;;;;;5.10;3.72;;;16.00;99.90;;;;;;5039497;28;20215;-88
2022/07/25 04:27:58;;;;;;;4.55;2.92;;;16.10;99.90;;;;;;5023611;28;20180;-89
2022/07/25 04:30:24;;;;;;;5.07;2.85;;;16.20;99.90;;;;;;5058112;28;20176;-88
2022/07/25 04:32:49;;;;;;;4.85;3.15;;;16.20;99.90;;;;;;5058863;28;20227;-88
2022/07/25 04:35:15;;;;;;;3.78;3.15;;;16.30;99.90;;;;;;5024271;28;20295;-88
2022/07/25 04:37:40;;;;;;;4.75;2.60;;;16.40;99.90;;;;;;5024521;28;20188;-88
2022/07/25 04:40:06;;;;;;;5.07;3.15;;;16.50;99.90;;;;;;5040815;28;20194;-88
2022/07/25 04:42:32;;;;;;;4.43;3.33;;;16.70;99.90;;;;;;5023073;28;20183;-87
2022/07/25 04:44:57;;;;;;;4.45;3.00;;;16.80;99.90;;;;;;5041408;28;20649;-87
2022/07/25 04:47:23;;;;;;;6.60;3.90;;;16.90;99.90;;;;;;5060492;28;20176;-88
2022/07/25 04:49:48;;;;;;;3.85;2.70;;;17.00;99.90;;;;;;5056248;28;20664;-88
2022/07/25 04:52:14;;;;;;;4.50;2.92;;;17.00;99.90;;;;;;5039991;28;20261;-88
2022/07/25 04:54:39;;;;;;;2.95;2.35;;;17.10;99.90;;;;;;5039351;28;20184;-89
2022/07/25 04:57:05;;;;;;;3.63;2.58;;;17.20;99.90;;;;;;5056982;28;20619;-87
2022/07/25 04:59:31;;;;;;;3.13;2.10;;;17.30;99.90;;;;;;5057191;28;20206;-87
2022/07/25 05:01:56;;;;;;;3.05;1.90;;;17.30;99.90;;;;;;5039383;28;20647;-88
2022/07/25 05:04:22;;;;;;;4.22;2.65;;;17.30;99.90;;;;;;5056579;28;20176;-88
2022/07/25 05:06:47;;;;;;;2.70;2.40;;;17.40;99.90;;;;;;5021956;28;20191;-86
2022/07/25 05:09:13;;;;;;;4.40;3.08;;;17.40;99.90;;;;;;5055132;28;20180;-86
2022/07/25 05:11:38;;;;;;;4.40;3.00;;;17.50;99.90;;;;;;5056316;28;20268;-86
2022/07/25 05:14:04;;;;;;;3.75;2.85;;;17.60;99.90;;;;;;5056908;28;20184;-87
2022/07/25 05:16:30;;;;;;;3.47;2.42;;;17.70;99.90;;;;;;5056747;28;20235;-85
2022/07/25 05:18:55;;;;;;;4.55;2.45;;;17.80;99.90;;;;;;5037783;28;20183;-87
2022/07/25 05:21:21;;;;;;;2.40;2.00;;;17.90;99.90;;;;;;5055398;28;20180;-86
2022/07/25 05:23:46;;;;;;;3.45;2.30;;;18.00;99.90;;;;;;5039665;28;20364;-86
2022/07/25 05:26:12;;;;;;;2.42;2.08;;;18.10;99.90;;;;;;5051659;28;20214;-87
2022/07/25 05:28:38;;;;;;;3.83;2.53;;;18.20;99.90;;;;;;5030190;28;20176;-87
2022/07/25 05:31:03;;;;;;;4.05;2.40;;;18.30;99.90;;;;;;5051954;28;20210;-87
2022/07/25 05:33:29;;;;;;;4.60;2.85;;;18.40;99.90;;;;;;5065307;28;20673;-87
2022/07/25 05:35:55;;;;;;;2.67;2.00;;;18.50;99.90;;;;;;5039704;28;20208;-86
2022/07/25 05:38:20;;;;;;;6.82;2.38;;;18.50;99.90;;;;;;5020552;28;20211;-85
2022/07/25 05:40:46;;;;;;;3.33;2.25;;;18.50;99.90;;;;;;5054997;28;20586;-86
2022/07/25 05:43:11;;;;;;;2.15;1.52;;;18.50;99.90;;;;;;5054858;28;20643;-86
2022/07/25 05:45:37;;;;;;;4.22;2.33;;;18.60;99.90;;;;;;5036755;28;20188;-84
2022/07/25 05:48:03;;;;;;;2.35;1.73;;;18.70;99.90;;;;;;5037051;28;20187;-86
2022/07/25 05:50:28;;;;;;;1.88;1.48;;;18.90;99.90;;;;;;5036865;28;20551;-86
2022/07/25 05:52:54;;;;;;;1.73;1.42;;;19.70;99.90;;;;;;5037207;28;20271;-86
2022/07/25 05:55:19;;;;;;;1.92;1.40;;;19.10;99.90;;;;;;5037650;28;20214;-85
2022/07/25 05:57:45;;;;;;;2.22;1.67;;;19.20;99.90;;;;;;5036794;28;20245;-86
2022/07/25 06:00:11;;;;;;;2.17;1.65;;;19.30;99.90;;;;;;5055259;28;20176;-85
2022/07/25 06:02:37;;;;;;;2.95;1.48;;;19.40;99.90;;;;;;5054147;28;20176;-85
2022/07/25 06:05:02;;;;;;;1.90;1.50;;;19.50;99.90;;;;;;5036886;28;20283;-85
2022/07/25 06:07:28;;;;;;;1.30;1.13;;;19.60;99.90;;;;;;5036386;28;20225;-85
2022/07/25 06:09:54;;;;;;;1.73;1.20;;;19.60;99.90;;;;;;5003257;28;20278;-85
2022/07/25 06:12:19;;;;;;;2.22;1.10;;;19.60;99.90;;;;;;5036555;28;20183;-85
2022/07/25 06:14:45;;;;;;;2.03;1.55;;;19.70;99.90;;;;;;5054155;28;20180;-85
2022/07/25 06:17:10;;;;;;;2.10;1.55;;;19.70;99.90;;;;;;5035957;28;20207;-85
2022/07/25 06:19:36;;;;;;;1.20;0.90;;;19.70;99.90;;;;;;5054332;28;20183;-84
2022/07/25 06:22:01;;;;;;;1.30;1.20;;;19.80;99.90;;;;;;5053747;28;20202;-86
2022/07/25 06:24:27;;;;;;;1.95;1.65;;;19.70;99.90;;;;;;5055551;28;20195;-85
2022/07/25 06:26:53;;;;;;;2.47;1.27;;;19.80;99.90;;;;;;5054283;28;20509;-86
2022/07/25 06:29:18;;;;;;;1.65;1.35;;;19.80;99.90;;;;;;5052687;28;20188;-86
2022/07/25 06:31:44;;;;;;;0.85;0.85;;;19.80;99.90;;;;;;5053297;28;20232;-85
2022/07/25 06:34:09;;;;;;;2.00;1.60;;;19.90;99.90;;;;;;5054027;28;20708;-86
2022/07/25 06:36:35;;;;;;;2.05;1.35;;;20.10;99.90;;;;;;5053503;28;20703;-85
2022/07/25 06:39:01;;;;;;;1.63;1.27;;;20.10;99.90;;;;;;5055524;28;20192;-86
2022/07/25 06:41:26;;;;;;;2.15;1.30;;;20.20;99.90;;;;;;5036032;28;20187;-86
2022/07/25 06:43:52;;;;;;;2.25;1.17;;;20.20;99.90;;;;;;5035727;28;20184;-86
2022/07/25 06:46:18;;;;;;;1.35;1.17;;;20.40;99.90;;;;;;5053483;28;20183;-88
2022/07/25 06:48:43;;;;;;;1.38;1.10;;;20.40;99.90;;;;;;5019751;28;20184;-87
2022/07/25 06:51:09;;;;;;;1.45;1.25;;;20.40;99.90;;;;;;5035605;28;20255;-87
2022/07/25 06:53:35;;;;;;;1.70;1.48;;;20.50;99.90;;;;;;5035574;28;20655;-88
2022/07/25 06:56:00;;;;;;;1.63;1.42;;;20.60;99.90;;;;;;5035448;28;20203;-88
2022/07/25 06:58:26;;;;;;;1.45;1.25;;;20.80;99.90;;;;;;5019041;28;20266;-88
2022/07/25 07:00:52;;;;;;;2.53;1.80;;;20.90;99.90;;;;;;5035263;28;20628;-88
2022/07/25 07:03:17;;;;;;;1.35;1.25;;;21.10;99.90;;;;;;5020544;28;20186;-89
2022/07/25 07:05:43;;;;;;;1.77;1.25;;;21.20;99.90;;;;;;5035783;28;20187;-86
2022/07/25 07:08:08;;;;;;;1.23;1.13;;;21.30;99.90;;;;;;5053634;28;20184;-87
2022/07/25 07:10:34;;;;;;;1.38;1.15;;;21.20;99.90;;;;;;5052345;28;20258;-89
2022/07/25 07:13:05;;;;;;;2.38;0.93;;;21.00;99.90;;;;;;5018760;28;20617;-88
2022/07/25 07:15:31;;;;;;;1.90;1.08;;;20.90;99.90;;;;;;5035655;28;20200;-87
2022/07/25 07:17:57;;;;;;;3.63;1.70;;;20.80;99.90;;;;;;5053478;28;20195;-88
2022/07/25 07:20:22;;;;;;;1.52;1.25;;;20.80;99.90;;;;;;5020255;28;20221;-87
2022/07/25 07:22:48;;;;;;;1.30;1.00;;;20.90;99.90;;;;;;5019870;28;20630;-88
2022/07/25 07:25:16;;;;;;;1.20;1.10;;;20.90;99.90;;;;;;5036164;28;20186;-88
2022/07/25 07:27:43;;;;;;;1.52;1.20;;;20.90;99.90;;;;;;5054029;28;20175;-88
2022/07/25 07:30:09;;;;;;;1.75;1.30;;;21.00;99.90;;;;;;5053856;28;20176;-89
2022/07/25 07:32:35;;;;;;;2.92;1.55;;;21.10;99.90;;;;;;5053447;28;20234;-89
2022/07/25 07:35:00;;;;;;;3.83;1.60;;;21.10;99.90;;;;;;5053528;28;20563;-89
2022/07/25 07:37:26;;;;;;;4.13;1.30;;;20.90;99.90;;;;;;5035707;28;20195;-88
2022/07/25 07:39:52;;;;;;;2.00;1.65;;;20.80;99.90;;;;;;5035425;28;20184;-88
2022/07/25 07:42:17;;;;;;;1.83;1.55;;;20.70;99.90;;;;;;5035661;28;20275;-88
2022/07/25 07:44:43;;;;;;;4.43;2.60;;;20.80;99.90;;;;;;5035867;28;20191;-88
2022/07/25 07:47:08;;;;;;;4.38;2.92;;;20.90;99.90;;;;;;5035978;28;20191;-88
2022/07/25 07:49:34;;;;;;;2.70;1.67;;;21.20;99.90;;;;;;5035648;28;20632;-88
2022/07/25 07:52:00;;;;;;;4.30;2.65;;;21.40;99.90;;;;;;5053503;28;20188;-87
2022/07/25 07:57:09;;;;;;;1.65;1.38;;;21.70;99.90;;;;;;5023826;28;20217;-88
2022/07/25 07:59:35;;;;;;;2.72;1.70;;;21.80;99.90;;;;;;5035517;28;20180;-88
2022/07/25 08:02:00;;;;;;;3.25;1.80;;;22.00;99.90;;;;;;5034736;28;20184;-89
2022/07/25 08:04:26;;;;;;;2.00;1.58;;;22.30;99.90;;;;;;5035499;28;20176;-89
2022/07/25 08:06:52;;;;;;;2.53;1.58;;;22.40;99.90;;;;;;5053356;28;20261;-89
2022/07/25 08:09:18;;;;;;;1.67;1.40;;;22.40;99.90;;;;;;5019464;28;20686;-88
2022/07/25 08:11:43;;;;;;;2.13;1.45;;;22.40;99.90;;;;;;5047171;28;20176;-86
2022/07/25 08:14:10;;;;;;;2.28;1.90;;;22.10;99.90;;;;;;5076278;28;20175;-87
2022/07/25 08:16:35;;;;;;;1.42;1.33;;;21.80;99.90;;;;;;5060225;28;20263;-87
2022/07/25 08:19:01;;;;;;;1.58;1.48;;;21.60;99.90;;;;;;5077167;28;20235;-88
2022/07/25 08:21:27;;;;;;;2.42;1.70;;;21.60;99.90;;;;;;5060206;28;20198;-88
2022/07/25 08:23:53;;;;;;;4.70;1.85;;;21.40;99.90;;;;;;5044076;28;20187;-87
2022/07/25 08:26:18;;;;;;;1.90;1.70;;;21.40;99.90;;;;;;5048659;28;20629;-88
2022/07/25 08:28:44;;;;;;;1.55;1.35;;;21.40;99.90;;;;;;5039174;28;20625;-88
2022/07/25 08:31:10;;;;;;;1.50;1.40;;;21.30;99.90;;;;;;5067825;28;20218;-87
2022/07/25 08:33:35;;;;;;;2.17;1.50;;;21.40;99.90;;;;;;5059741;28;20208;-87
2022/07/25 08:36:01;;;;;;;3.17;1.70;;;21.50;99.90;;;;;;5043482;28;20199;-88
2022/07/25 08:38:27;;;;;;;4.85;1.60;;;21.60;99.90;;;;;;5042139;28;20200;-88
2022/07/25 08:40:55;;;;;;;1.73;1.52;;;21.90;99.90;;;;;;5057798;28;20182;-86
2022/07/25 08:43:21;;;;;;;1.80;1.60;;;22.10;99.90;;;;;;5061436;28;20180;-88
2022/07/25 08:45:48;;;;;;;1.45;1.35;;;22.30;99.90;;;;;;5042147;28;20183;-88
2022/07/25 08:48:21;;;;;;;1.30;1.20;;;22.50;99.90;;;;;;5041190;28;20176;-88
2022/07/25 08:50:47;;;;;;;1.60;1.50;;;22.60;99.90;;;;;;5041633;28;20545;-88
2022/07/25 08:53:16;;;;;;;1.50;1.17;;;22.80;99.90;;;;;;5024675;28;20278;-88
2022/07/25 08:55:44;;;;;;;2.17;1.35;;;22.90;99.90;;;;;;5041580;28;20683;-89
2022/07/25 08:58:11;;;;;;;2.10;1.40;;;23.10;99.90;;;;;;5058201;28;20187;-90
2022/07/25 09:00:37;;;;;;;1.92;1.70;;;23.40;99.90;;;;;;5039156;28;20175;-90
2022/07/25 09:03:05;;;;;;;1.55;1.45;;;23.70;99.90;;;;;;5038426;28;20617;-87
2022/07/25 09:05:32;;;;;;;1.83;1.30;;;23.70;99.90;;;;;;5038182;28;20211;-89
2022/07/25 09:08:07;;;;;;;2.28;1.65;;;23.60;99.90;;;;;;5021022;28;20191;-89
2022/07/25 09:10:34;;;;;;;2.30;1.77;;;23.40;99.90;;;;;;5055881;28;20156;-90
2022/07/25 09:13:06;;;;;;;1.90;1.60;;;23.20;99.90;;;;;;5039026;28;20184;-89
2022/07/25 09:15:36;;;;;;;4.10;1.75;;;22.90;99.90;;;;;;5055964;28;20188;-88
2022/07/25 09:18:06;;;;;;;1.40;1.13;;;22.70;99.90;;;;;;5056080;28;20559;-89
2022/07/25 09:20:42;;;;;;;2.42;1.55;;;22.60;99.90;;;;;;5037947;28;20247;-88
2022/07/25 09:23:09;;;;;;;1.77;1.50;;;22.30;99.90;;;;;;5056308;28;20175;-92
2022/07/25 09:25:37;;;;;;;3.80;1.88;;;22.30;99.90;;;;;;5056552;28;20191;-89
2022/07/25 09:28:16;;;;;;;2.03;1.50;;;22.60;99.90;;;;;;5057695;28;20199;-89
2022/07/25 09:30:53;;;;;;;2.17;1.98;;;22.80;99.90;;;;;;5039955;28;20241;-90
2022/07/25 09:33:19;;;;;;;1.13;1.02;;;23.00;99.90;;;;;;5037976;28;20539;-89
2022/07/25 09:35:45;;;;;;;2.13;1.70;;;23.20;99.90;;;;;;5054223;28;20226;-88
2022/07/25 09:38:13;;;;;;;1.70;1.52;;;23.30;99.90;;;;;;5037812;28;20180;-89
2022/07/25 09:40:39;;;;;;;2.03;1.10;;;23.60;99.90;;;;;;5041073;28;20211;-89
2022/07/25 09:43:06;;;;;;;1.38;1.23;;;23.70;99.90;;;;;;5057945;28;20182;-88
2022/07/25 09:45:31;;;;;;;1.58;1.33;;;23.70;99.90;;;;;;5023106;28;20669;-89
2022/07/25 09:48:17;;;;;;;2.35;1.42;;;23.90;99.90;;;;;;5039031;28;20172;-88
2022/07/25 09:50:43;;;;;;;1.55;1.40;;;23.80;99.90;;;;;;5059305;28;20255;-89
2022/07/25 09:53:08;;;;;;;1.15;1.05;;;24.00;99.90;;;;;;5043075;28;20218;-88
2022/07/25 09:55:34;;;;;;;1.17;1.08;;;23.90;99.90;;;;;;5038821;28;20664;-90
2022/07/25 09:58:00;;;;;;;2.15;1.50;;;23.80;99.90;;;;;;5039613;28;20182;-87
2022/07/25 10:00:27;;;;;;;2.50;1.38;;;23.90;99.90;;;;;;5045280;28;20190;-89
2022/07/25 10:03:15;;;;;;;4.43;1.63;;;24.10;99.90;;;;;;5045221;28;20203;-89
2022/07/25 10:06:10;;;;;;;1.50;1.40;;;24.40;99.90;;;;;;5062126;28;20183;-87
2022/07/25 10:08:37;;;;;;;2.50;1.40;;;24.70;99.90;;;;;;5062449;28;20212;-87
2022/07/25 10:11:05;;;;;;;1.20;1.02;;;24.70;99.90;;;;;;5047449;28;20232;-88
2022/07/25 10:13:33;;;;;;;1.67;1.58;;;25.00;99.90;;;;;;5060716;28;20754;-88
2022/07/25 10:16:00;;;;;;;1.60;1.23;;;24.90;99.90;;;;;;5055954;28;20195;-89
2022/07/25 10:18:29;;;;;;;1.25;1.08;;;25.00;99.90;;;;;;5078173;28;20202;-88
2022/07/25 10:21:08;;;;;;;1.52;1.33;;;25.20;99.90;;;;;;5078185;28;20231;-86
2022/07/25 10:23:34;;;;;;;3.97;2.13;;;25.20;99.90;;;;;;5049949;28;20225;-88
2022/07/25 10:26:15;;;;;;;4.03;2.13;;;25.20;99.90;;;;;;5043005;28;20180;-88
2022/07/25 10:28:40;;;;;;;1.73;1.40;;;25.40;99.90;;;;;;5041562;28;20191;-88
2022/07/25 10:31:20;;;;;;;2.03;1.48;;;25.30;98.30;;;;;;5058081;28;20220;-87
2022/07/25 10:33:58;;;;;;;1.42;1.33;;;25.10;98.80;;;;;;5038156;28;20165;-88
2022/07/25 10:36:40;;;;;;;1.67;1.27;;;25.10;99.90;;;;;;5035646;28;20204;-89
2022/07/25 10:39:08;;;;;;;1.80;1.40;;;24.70;99.60;;;;;;5036258;28;20165;-88
2022/07/25 10:41:41;;;;;;;1.88;1.55;;;24.40;99.90;;;;;;5017787;28;20603;-88
2022/07/25 10:44:14;;;;;;;1.73;1.40;;;24.20;99.40;;;;;;5035228;28;20610;-88
2022/07/25 10:46:43;;;;;;;1.42;1.27;;;24.50;99.90;;;;;;5034724;28;20208;-89
2022/07/25 10:49:17;;;;;;;1.70;1.15;;;24.80;99.90;;;;;;5035132;28;20176;-89
2022/07/25 10:51:55;;;;;;;1.15;1.05;;;25.00;97.90;;;;;;5034807;28;20161;-89
2022/07/25 10:54:21;;;;;;;2.85;2.17;;;25.20;96.30;;;;;;5034301;28;20176;-87
2022/07/25 10:56:55;;;;;;;1.90;1.40;;;25.30;97.30;;;;;;5033696;28;20204;-89
2022/07/25 10:59:38;;;;;;;1.75;1.08;;;25.30;98.30;;;;;;5032409;28;20185;-88
2022/07/25 11:02:05;;;;;;;2.03;1.63;;;25.50;99.90;;;;;;5015949;28;20208;-88
2022/07/25 11:04:31;;;;;;;1.50;1.20;;;25.80;98.20;;;;;;5015848;28;20215;-88
2022/07/25 11:07:10;;;;;;;1.65;1.35;;;26.30;97.70;;;;;;5015681;28;20554;-88
2022/07/25 11:09:36;;;;;;;2.60;1.90;;;26.60;96.50;;;;;;5033375;28;20235;-87
2022/07/25 11:12:02;;;;;;;2.45;1.35;;;26.90;96.30;;;;;;5033643;28;20614;-85
2022/07/25 11:14:31;;;;;;;1.38;1.05;;;27.00;93.20;;;;;;5016191;28;20796;-88
2022/07/25 11:17:08;;;;;;;1.48;1.38;;;27.00;91.70;;;;;;5033733;28;20736;-88
2022/07/25 11:19:33;;;;;;;1.05;0.95;;;26.80;90.60;;;;;;5017367;28;20173;-86
2022/07/25 11:22:03;;;;;;;1.42;1.20;;;26.60;90.80;;;;;;5033440;28;20740;-87
2022/07/25 11:24:40;;;;;;;1.42;1.33;;;26.30;91.90;;;;;;5015639;28;20184;-87
2022/07/25 11:27:08;;;;;;;4.78;1.40;;;26.00;92.60;;;;;;5032325;28;20236;-87
2022/07/25 11:29:34;;;;;;;1.33;1.23;;;26.40;93.20;;;;;;5033797;28;20221;-87
2022/07/25 11:32:03;;;;;;;2.28;1.25;;;26.40;91.60;;;;;;5021895;28;20315;-88
2022/07/25 11:34:31;;;;;;;1.50;1.40;;;26.40;90.10;;;;;;5012186;28;20265;-87
2022/07/25 11:36:59;;;;;;;1.35;1.00;;;26.30;89.00;;;;;;4995745;28;20296;-87
2022/07/25 11:39:31;;;;;;;2.00;1.40;;;26.20;87.20;;;;;;5013254;28;20689;-87
2022/07/25 11:42:06;;;;;;;1.45;1.27;;;26.30;90.70;;;;;;5013244;28;20181;-87
2022/07/25 11:44:49;;;;;;;1.70;1.48;;;26.60;89.90;;;;;;5013181;28;20680;-87
2022/07/25 11:47:41;;;;;;;3.75;1.10;;;26.90;87.50;;;;;;5013738;28;20251;-87
2022/07/25 11:50:09;;;;;;;2.63;1.33;;;26.90;89.30;;;;;;4993510;28;20185;-88
2022/07/25 11:52:37;;;;;;;2.10;1.45;;;26.90;84.80;;;;;;4979916;28;20192;-88
2022/07/25 11:55:15;;;;;;;1.15;1.05;;;27.10;87.70;;;;;;5012630;28;20638;-87
2022/07/25 11:57:45;;;;;;;1.33;1.15;;;27.20;90.10;;;;;;5014491;28;20240;-86
2022/07/25 12:00:20;;;;;;;1.85;1.65;;;27.50;84.70;;;;;;5016459;28;20587;-87
2022/07/25 12:02:48;;;;;;;1.20;1.10;;;27.30;85.10;;;;;;5017703;28;20184;-86
2022/07/25 12:05:18;;;;;;;1.10;1.00;;;27.40;87.40;;;;;;4983660;28;20180;-87
2022/07/25 12:07:45;;;;;;;2.00;1.48;;;27.20;85.90;;;;;;5000514;28;20424;-86
2022/07/25 12:10:18;;;;;;;1.35;1.17;;;27.20;84.50;;;;;;5018364;28;20177;-86
2022/07/25 12:12:48;;;;;;;1.98;1.17;;;27.10;86.30;;;;;;5018490;28;20208;-87
2022/07/25 12:15:18;;;;;;;1.40;1.25;;;27.10;86.10;;;;;;5018720;28;20177;-87
2022/07/25 12:17:45;;;;;;;2.97;1.58;;;27.00;85.00;;;;;;5018840;28;20173;-87
2022/07/25 12:20:20;;;;;;;2.38;1.35;;;26.90;88.40;;;;;;5000801;28;20189;-88
2022/07/25 12:22:47;;;;;;;1.88;1.33;;;26.90;85.20;;;;;;5018028;28;20177;-87
2022/07/25 12:25:13;;;;;;;1.30;1.10;;;26.70;86.30;;;;;;5019650;28;20181;-87
2022/07/25 12:27:39;;;;;;;1.30;1.20;;;26.70;86.60;;;;;;5019586;28;20208;-87
2022/07/25 12:30:07;;;;;;;1.60;1.20;;;26.80;85.70;;;;;;5019045;28;20184;-87
2022/07/25 12:32:33;;;;;;;1.25;1.10;;;26.90;84.40;;;;;;5034312;28;20324;-87
2022/07/25 12:34:59;;;;;;;1.67;1.20;;;26.80;83.20;;;;;;5021023;28;20219;-89
2022/07/25 12:37:25;;;;;;;1.75;1.35;;;26.90;83.40;;;;;;5038765;28;20204;-86
2022/07/25 12:39:51;;;;;;;1.25;1.13;;;27.00;86.30;;;;;;5049740;28;20238;-85
2022/07/25 12:42:18;;;;;;;1.45;1.35;;;27.10;85.30;;;;;;5026994;28;20200;-85
2022/07/25 12:44:43;;;;;;;1.27;1.17;;;27.20;84.90;;;;;;5042367;28;20637;-88
2022/07/25 12:47:09;;;;;;;1.50;1.25;;;27.40;83.10;;;;;;5046018;28;20212;-88
2022/07/25 12:49:35;;;;;;;1.33;1.02;;;27.30;79.80;;;;;;5020683;28;20510;-88
2022/07/25 12:52:01;;;;;;;1.58;1.20;;;26.80;82.00;;;;;;5038731;28;20197;-88
2022/07/25 12:54:26;;;;;;;1.85;1.40;;;26.60;82.80;;;;;;5004442;28;20569;-88